sensor_id;sensor_type;location;lat;lon;timestamp;pressure;altitude;pressure_sealevel;temperature;humidity
9764;BME280;4921;43.214;27.936;2022-11-18T00:02:06;100009.50;;;14.47;100.00
9764;BME280;4921;43.214;27.936;2022-11-18T00:04:33;100010.34;;;14.47;100.00
9764;BME280;4921;43.214;27.936;2022-11-18T00:07:00;100008.16;;;14.43;100.00
9764;BME280;4921;43.214;27.936;2022-11-18T00:09:27;100005.53;;;14.43;100.00
9764;BME280;4921;43.214;27.936;2022-11-18T00:11:55;100000.94;;;14.53;100.00
9764;BME280;4921;43.214;27.936;2022-11-18T00:14:39;100001.56;;;14.47;100.00
9764;BME280;4921;43.214;27.936;2022-11-18T00:17:06;100009.47;;;14.39;100.00
9764;BME280;4921;43.214;27.936;2022-11-18T00:19:34;100006.84;;;14.39;100.00
9764;BME280;4921;43.214;27.936;2022-11-18T00:22:02;100009.34;;;14.40;100.00
9764;BME280;4921;43.214;27.936;2022-11-18T00:24:30;100006.00;;;14.30;100.00
9764;BME280;4921;43.214;27.936;2022-11-18T00:26:59;100015.03;;;14.28;100.00
9764;BME280;4921;43.214;27.936;2022-11-18T00:29:26;100022.84;;;14.29;100.00
9764;BME280;4921;43.214;27.936;2022-11-18T00:31:53;100028.16;;;14.29;100.00
9764;BME280;4921;43.214;27.936;2022-11-18T00:34:20;100013.78;;;14.06;100.00
9764;BME280;4921;43.214;27.936;2022-11-18T00:36:47;100022.28;;;14.18;100.00
9764;BME280;4921;43.214;27.936;2022-11-18T00:39:16;100032.34;;;14.14;100.00
9764;BME280;4921;43.214;27.936;2022-11-18T00:41:43;100032.16;;;14.08;100.00
9764;BME280;4921;43.214;27.936;2022-11-18T00:44:29;100025.69;;;14.02;100.00
9764;BME280;4921;43.214;27.936;2022-11-18T00:46:57;100029.53;;;14.08;100.00
9764;BME280;4921;43.214;27.936;2022-11-18T00:49:23;100026.50;;;14.03;100.00
9764;BME280;4921;43.214;27.936;2022-11-18T00:51:50;100033.22;;;13.89;100.00
9764;BME280;4921;43.214;27.936;2022-11-18T00:54:18;100030.53;;;13.81;100.00
9764;BME280;4921;43.214;27.936;2022-11-18T00:56:45;100037.75;;;13.71;100.00
9764;BME280;4921;43.214;27.936;2022-11-18T00:59:12;100031.47;;;13.72;100.00
9764;BME280;4921;43.214;27.936;2022-11-18T01:01:40;100036.41;;;13.67;100.00
9764;BME280;4921;43.214;27.936;2022-11-18T01:04:07;100028.78;;;13.64;100.00
9764;BME280;4921;43.214;27.936;2022-11-18T01:06:34;100031.41;;;13.64;100.00
9764;BME280;4921;43.214;27.936;2022-11-18T01:09:00;100022.19;;;13.68;100.00
9764;BME280;4921;43.214;27.936;2022-11-18T01:11:27;100024.00;;;13.67;100.00
9764;BME280;4921;43.214;27.936;2022-11-18T01:14:11;100024.34;;;13.64;100.00
9764;BME280;4921;43.214;27.936;2022-11-18T01:16:39;100023.50;;;13.64;100.00
9764;BME280;4921;43.214;27.936;2022-11-18T01:19:06;100021.94;;;13.53;100.00
9764;BME280;4921;43.214;27.936;2022-11-18T01:21:33;100009.09;;;13.33;100.00
9764;BME280;4921;43.214;27.936;2022-11-18T01:24:00;100015.88;;;13.35;100.00
9764;BME280;4921;43.214;27.936;2022-11-18T01:26:27;100019.97;;;13.30;100.00
9764;BME280;4921;43.214;27.936;2022-11-18T01:28:54;100021.69;;;13.39;100.00
9764;BME280;4921;43.214;27.936;2022-11-18T01:31:22;100015.19;;;13.33;100.00
9764;BME280;4921;43.214;27.936;2022-11-18T01:33:51;100011.88;;;13.31;100.00
9764;BME280;4921;43.214;27.936;2022-11-18T01:36:20;100007.94;;;13.35;100.00
9764;BME280;4921;43.214;27.936;2022-11-18T01:38:47;100011.59;;;13.34;100.00
9764;BME280;4921;43.214;27.936;2022-11-18T01:41:16;100007.44;;;13.32;100.00
9764;BME280;4921;43.214;27.936;2022-11-18T01:43:48;100007.06;;;13.27;100.00
9764;BME280;4921;43.214;27.936;2022-11-18T01:46:15;100001.56;;;13.20;100.00
9764;BME280;4921;43.214;27.936;2022-11-18T01:48:44;100006.41;;;13.07;100.00
9764;BME280;4921;43.214;27.936;2022-11-18T01:51:15;99988.13;;;12.96;100.00
9764;BME280;4921;43.214;27.936;2022-11-18T01:53:47;100006.84;;;13.02;100.00
9764;BME280;4921;43.214;27.936;2022-11-18T01:56:17;99998.09;;;13.02;100.00
9764;BME280;4921;43.214;27.936;2022-11-18T01:58:50;100007.31;;;12.98;100.00
9764;BME280;4921;43.214;27.936;2022-11-18T02:01:18;99994.69;;;12.92;100.00
9764;BME280;4921;43.214;27.936;2022-11-18T02:03:45;100002.84;;;12.98;100.00
9764;BME280;4921;43.214;27.936;2022-11-18T02:06:15;100000.16;;;13.08;100.00
9764;BME280;4921;43.214;27.936;2022-11-18T02:08:42;99999.53;;;13.14;100.00
9764;BME280;4921;43.214;27.936;2022-11-18T02:11:12;99989.81;;;13.15;100.00
9764;BME280;4921;43.214;27.936;2022-11-18T02:14:01;99990.00;;;13.13;100.00
9764;BME280;4921;43.214;27.936;2022-11-18T02:16:36;99993.97;;;13.17;100.00
9764;BME280;4921;43.214;27.936;2022-11-18T02:19:21;99984.72;;;13.13;100.00
9764;BME280;4921;43.214;27.936;2022-11-18T02:22:03;99995.03;;;13.07;100.00
9764;BME280;4921;43.214;27.936;2022-11-18T02:24:40;99990.50;;;13.17;100.00
9764;BME280;4921;43.214;27.936;2022-11-18T02:27:30;99992.75;;;13.12;100.00
9764;BME280;4921;43.214;27.936;2022-11-18T02:30:04;99990.03;;;13.03;100.00
9764;BME280;4921;43.214;27.936;2022-11-18T02:32:39;99996.16;;;13.04;100.00
9764;BME280;4921;43.214;27.936;2022-11-18T02:35:13;99996.38;;;12.93;100.00
9764;BME280;4921;43.214;27.936;2022-11-18T02:37:46;99996.28;;;13.02;100.00
9764;BME280;4921;43.214;27.936;2022-11-18T02:40:20;100005.59;;;13.07;100.00
9764;BME280;4921;43.214;27.936;2022-11-18T02:42:51;99996.22;;;13.12;100.00
9764;BME280;4921;43.214;27.936;2022-11-18T02:45:22;99996.28;;;13.02;100.00
9764;BME280;4921;43.214;27.936;2022-11-18T02:47:50;100005.25;;;12.92;100.00
9764;BME280;4921;43.214;27.936;2022-11-18T02:50:21;100001.72;;;12.83;100.00
9764;BME280;4921;43.214;27.936;2022-11-18T02:52:53;100004.53;;;12.82;100.00
9764;BME280;4921;43.214;27.936;2022-11-18T02:55:22;100000.59;;;12.86;100.00
9764;BME280;4921;43.214;27.936;2022-11-18T02:57:51;100006.72;;;12.86;100.00
9764;BME280;4921;43.214;27.936;2022-11-18T03:00:19;100004.13;;;12.77;100.00
9764;BME280;4921;43.214;27.936;2022-11-18T03:02:48;100003.84;;;12.80;100.00
9764;BME280;4921;43.214;27.936;2022-11-18T03:05:18;100007.00;;;12.83;100.00
9764;BME280;4921;43.214;27.936;2022-11-18T03:07:52;100007.22;;;12.72;100.00
9764;BME280;4921;43.214;27.936;2022-11-18T03:10:20;100013.66;;;12.70;100.00
9764;BME280;4921;43.214;27.936;2022-11-18T03:12:54;100019.66;;;12.62;100.00
9764;BME280;4921;43.214;27.936;2022-11-18T03:15:32;100008.03;;;12.55;100.00
9764;BME280;4921;43.214;27.936;2022-11-18T03:18:09;100017.69;;;12.64;100.00
9764;BME280;4921;43.214;27.936;2022-11-18T03:20:45;100011.91;;;12.61;100.00
9764;BME280;4921;43.214;27.936;2022-11-18T03:23:19;100016.13;;;12.54;100.00
9764;BME280;4921;43.214;27.936;2022-11-18T03:25:50;100013.91;;;12.49;100.00
9764;BME280;4921;43.214;27.936;2022-11-18T03:28:23;100013.25;;;12.47;100.00
9764;BME280;4921;43.214;27.936;2022-11-18T03:30:55;100018.53;;;12.47;100.00
9764;BME280;4921;43.214;27.936;2022-11-18T03:33:30;100013.16;;;12.39;100.00
9764;BME280;4921;43.214;27.936;2022-11-18T03:36:00;100019.56;;;12.37;100.00
9764;BME280;4921;43.214;27.936;2022-11-18T03:38:32;100012.00;;;12.24;100.00
9764;BME280;4921;43.214;27.936;2022-11-18T03:41:05;100026.91;;;12.15;100.00
9764;BME280;4921;43.214;27.936;2022-11-18T03:43:36;100028.53;;;12.16;100.00
9764;BME280;4921;43.214;27.936;2022-11-18T03:46:07;100028.69;;;12.15;100.00
9764;BME280;4921;43.214;27.936;2022-11-18T03:48:42;100025.63;;;12.19;100.00
9764;BME280;4921;43.214;27.936;2022-11-18T03:51:13;100025.19;;;12.24;100.00
9764;BME280;4921;43.214;27.936;2022-11-18T03:53:45;100032.00;;;12.17;100.00
9764;BME280;4921;43.214;27.936;2022-11-18T03:56:15;100032.41;;;12.22;100.00
9764;BME280;4921;43.214;27.936;2022-11-18T03:58:49;100025.19;;;12.24;100.00
9764;BME280;4921;43.214;27.936;2022-11-18T04:01:24;100035.06;;;12.22;100.00
9764;BME280;4921;43.214;27.936;2022-11-18T04:03:54;100036.66;;;12.05;100.00
9764;BME280;4921;43.214;27.936;2022-11-18T04:06:24;100030.13;;;12.09;100.00
9764;BME280;4921;43.214;27.936;2022-11-18T04:08:58;100019.84;;;12.06;100.00
9764;BME280;4921;43.214;27.936;2022-11-18T04:11:30;100023.94;;;12.01;100.00
9764;BME280;4921;43.214;27.936;2022-11-18T04:14:17;100026.56;;;12.01;100.00
9764;BME280;4921;43.214;27.936;2022-11-18T04:16:50;100027.53;;;12.00;100.00
9764;BME280;4921;43.214;27.936;2022-11-18T04:19:18;100027.09;;;12.04;100.00
9764;BME280;4921;43.214;27.936;2022-11-18T04:21:46;100027.63;;;12.08;100.00
9764;BME280;4921;43.214;27.936;2022-11-18T04:24:13;100024.53;;;12.12;100.00
9764;BME280;4921;43.214;27.936;2022-11-18T04:26:41;100021.53;;;12.07;100.00
9764;BME280;4921;43.214;27.936;2022-11-18T04:29:08;100026.69;;;11.99;100.00
9764;BME280;4921;43.214;27.936;2022-11-18T04:31:35;100035.84;;;11.95;100.00
9764;BME280;4921;43.214;27.936;2022-11-18T04:34:02;100038.50;;;11.95;100.00
9764;BME280;4921;43.214;27.936;2022-11-18T04:36:30;100038.06;;;12.00;100.00
9764;BME280;4921;43.214;27.936;2022-11-18T04:38:57;100049.97;;;12.04;100.00
9764;BME280;4921;43.214;27.936;2022-11-18T04:41:23;100055.81;;;11.98;100.00
9764;BME280;4921;43.214;27.936;2022-11-18T04:44:10;100052.66;;;11.94;100.00
9764;BME280;4921;43.214;27.936;2022-11-18T04:46:39;100053.19;;;11.98;100.00
9764;BME280;4921;43.214;27.936;2022-11-18T04:49:06;100065.19;;;12.10;100.00
9764;BME280;4921;43.214;27.936;2022-11-18T04:51:35;100066.34;;;11.98;100.00
9764;BME280;4921;43.214;27.936;2022-11-18T04:54:03;100058.63;;;11.87;100.00
9764;BME280;4921;43.214;27.936;2022-11-18T04:56:30;100064.06;;;11.85;100.00
9764;BME280;4921;43.214;27.936;2022-11-18T04:58:57;100064.63;;;11.79;100.00
9764;BME280;4921;43.214;27.936;2022-11-18T05:01:25;100075.16;;;11.79;100.00
9764;BME280;4921;43.214;27.936;2022-11-18T05:03:52;100073.06;;;11.73;100.00
9764;BME280;4921;43.214;27.936;2022-11-18T05:06:19;100078.19;;;11.65;100.00
9764;BME280;4921;43.214;27.936;2022-11-18T05:08:47;100078.09;;;11.57;100.00
9764;BME280;4921;43.214;27.936;2022-11-18T05:11:14;100080.31;;;11.52;100.00
9764;BME280;4921;43.214;27.936;2022-11-18T05:13:59;100077.25;;;11.57;100.00
9764;BME280;4921;43.214;27.936;2022-11-18T05:16:26;100078.50;;;11.72;100.00
9764;BME280;4921;43.214;27.936;2022-11-18T05:18:52;100078.22;;;11.75;100.00
9764;BME280;4921;43.214;27.936;2022-11-18T05:21:19;100078.66;;;11.70;100.00
9764;BME280;4921;43.214;27.936;2022-11-18T05:23:48;100078.19;;;11.65;100.00
9764;BME280;4921;43.214;27.936;2022-11-18T05:26:14;100076.28;;;11.67;100.00
9764;BME280;4921;43.214;27.936;2022-11-18T05:28:41;100079.75;;;11.68;100.00
9764;BME280;4921;43.214;27.936;2022-11-18T05:31:09;100073.94;;;11.64;100.00
9764;BME280;4921;43.214;27.936;2022-11-18T05:33:38;100082.94;;;11.71;100.00
9764;BME280;4921;43.214;27.936;2022-11-18T05:36:06;100082.50;;;11.76;100.00
9764;BME280;4921;43.214;27.936;2022-11-18T05:38:34;100080.13;;;11.82;100.00
9764;BME280;4921;43.214;27.936;2022-11-18T05:41:03;100079.03;;;11.85;100.00
9764;BME280;4921;43.214;27.936;2022-11-18T05:43:31;100073.75;;;11.85;100.00
9764;BME280;4921;43.214;27.936;2022-11-18T05:45:58;100068.47;;;11.85;100.00
9764;BME280;4921;43.214;27.936;2022-11-18T05:48:25;100075.97;;;11.89;100.00
9764;BME280;4921;43.214;27.936;2022-11-18T05:50:53;100072.50;;;11.89;100.00
9764;BME280;4921;43.214;27.936;2022-11-18T05:53:22;100077.63;;;11.90;100.00
9764;BME280;4921;43.214;27.936;2022-11-18T05:55:53;100085.75;;;11.97;100.00
9764;BME280;4921;43.214;27.936;2022-11-18T05:58:23;100079.53;;;11.98;100.00
9764;BME280;4921;43.214;27.936;2022-11-18T06:00:52;100083.00;;;11.98;100.00
9764;BME280;4921;43.214;27.936;2022-11-18T06:03:24;100080.47;;;12.06;100.00
9764;BME280;4921;43.214;27.936;2022-11-18T06:05:53;100082.44;;;12.04;100.00
9764;BME280;4921;43.214;27.936;2022-11-18T06:08:22;100090.75;;;12.09;100.00
9764;BME280;4921;43.214;27.936;2022-11-18T06:10:50;100089.03;;;12.18;100.00
9764;BME280;4921;43.214;27.936;2022-11-18T06:13:21;100087.34;;;12.27;100.00
9764;BME280;4921;43.214;27.936;2022-11-18T06:15:50;100083.28;;;12.32;100.00
9764;BME280;4921;43.214;27.936;2022-11-18T06:18:21;100085.72;;;12.43;100.00
9764;BME280;4921;43.214;27.936;2022-11-18T06:20:51;100089.56;;;12.49;100.00
9764;BME280;4921;43.214;27.936;2022-11-18T06:23:19;100097.28;;;12.60;100.00
9764;BME280;4921;43.214;27.936;2022-11-18T06:25:46;100091.13;;;12.69;100.00
9764;BME280;4921;43.214;27.936;2022-11-18T06:28:15;100097.03;;;12.80;100.00
9764;BME280;4921;43.214;27.936;2022-11-18T06:30:42;100100.94;;;12.94;100.00
9764;BME280;4921;43.214;27.936;2022-11-18T06:33:10;100095.72;;;13.12;100.00
9764;BME280;4921;43.214;27.936;2022-11-18T06:35:37;100097.00;;;13.25;100.00
9764;BME280;4921;43.214;27.936;2022-11-18T06:38:04;100093.97;;;13.38;100.00
9764;BME280;4921;43.214;27.936;2022-11-18T06:40:31;100091.84;;;13.41;100.00
9764;BME280;4921;43.214;27.936;2022-11-18T06:43:04;100076.22;;;13.48;100.00
9764;BME280;4921;43.214;27.936;2022-11-18T06:45:49;100087.19;;;13.61;100.00
9764;BME280;4921;43.214;27.936;2022-11-18T06:48:31;100084.97;;;13.74;100.00
9764;BME280;4921;43.214;27.936;2022-11-18T06:50:58;100083.75;;;13.86;100.00
9764;BME280;4921;43.214;27.936;2022-11-18T06:53:25;100075.91;;;14.02;100.00
9764;BME280;4921;43.214;27.936;2022-11-18T06:55:52;100078.00;;;14.24;100.00
9764;BME280;4921;43.214;27.936;2022-11-18T06:58:19;100083.91;;;14.44;100.00
9764;BME280;4921;43.214;27.936;2022-11-18T07:00:46;100074.03;;;14.62;100.00
9764;BME280;4921;43.214;27.936;2022-11-18T07:03:12;100079.72;;;14.83;100.00
9764;BME280;4921;43.214;27.936;2022-11-18T07:05:41;100074.97;;;15.03;100.00
9764;BME280;4921;43.214;27.936;2022-11-18T07:08:07;100071.50;;;15.26;100.00
9764;BME280;4921;43.214;27.936;2022-11-18T07:10:34;100062.59;;;15.44;100.00
9764;BME280;4921;43.214;27.936;2022-11-18T07:13:01;100066.88;;;15.53;100.00
9764;BME280;4921;43.214;27.936;2022-11-18T07:15:28;100060.56;;;15.62;100.00
9764;BME280;4921;43.214;27.936;2022-11-18T07:17:55;100061.88;;;15.66;100.00
9764;BME280;4921;43.214;27.936;2022-11-18T07:20:22;100054.25;;;15.79;100.00
9764;BME280;4921;43.214;27.936;2022-11-18T07:22:52;100068.16;;;15.89;100.00
9764;BME280;4921;43.214;27.936;2022-11-18T07:25:19;100069.63;;;15.99;100.00
9764;BME280;4921;43.214;27.936;2022-11-18T07:27:46;100073.63;;;15.95;100.00
9764;BME280;4921;43.214;27.936;2022-11-18T07:30:13;100074.28;;;15.89;100.00
9764;BME280;4921;43.214;27.936;2022-11-18T07:32:40;100074.44;;;15.96;100.00
9764;BME280;4921;43.214;27.936;2022-11-18T07:35:07;100068.97;;;15.89;100.00
9764;BME280;4921;43.214;27.936;2022-11-18T07:37:34;100064.19;;;15.93;100.00
9764;BME280;4921;43.214;27.936;2022-11-18T07:40:03;100065.34;;;15.90;100.00
9764;BME280;4921;43.214;27.936;2022-11-18T07:42:30;100065.00;;;15.93;100.00
9764;BME280;4921;43.214;27.936;2022-11-18T07:45:08;100060.84;;;15.99;100.00
9764;BME280;4921;43.214;27.936;2022-11-18T07:47:35;100058.81;;;16.09;100.00
9764;BME280;4921;43.214;27.936;2022-11-18T07:50:03;100051.50;;;16.19;100.00
9764;BME280;4921;43.214;27.936;2022-11-18T07:52:30;100044.47;;;16.34;100.00
9764;BME280;4921;43.214;27.936;2022-11-18T07:54:57;100045.03;;;16.60;100.00
9764;BME280;4921;43.214;27.936;2022-11-18T07:57:26;100052.06;;;16.76;100.00
9764;BME280;4921;43.214;27.936;2022-11-18T07:59:52;100042.09;;;17.01;100.00
9764;BME280;4921;43.214;27.936;2022-11-18T08:02:19;100034.94;;;17.24;100.00
9764;BME280;4921;43.214;27.936;2022-11-18T08:04:46;100019.97;;;17.45;100.00
9764;BME280;4921;43.214;27.936;2022-11-18T08:07:13;100023.94;;;17.64;100.00
9764;BME280;4921;43.214;27.936;2022-11-18T08:09:40;100033.06;;;17.84;100.00
9764;BME280;4921;43.214;27.936;2022-11-18T08:12:07;100036.56;;;17.99;100.00
9764;BME280;4921;43.214;27.936;2022-11-18T08:14:35;100032.56;;;18.24;100.00
9764;BME280;4921;43.214;27.936;2022-11-18T08:17:02;100042.84;;;18.57;100.00
9764;BME280;4921;43.214;27.936;2022-11-18T08:19:29;100040.59;;;18.75;100.00
9764;BME280;4921;43.214;27.936;2022-11-18T08:21:56;100048.47;;;18.83;100.00
9764;BME280;4921;43.214;27.936;2022-11-18T08:24:22;100046.03;;;18.67;100.00
9764;BME280;4921;43.214;27.936;2022-11-18T08:26:49;100050.47;;;18.60;100.00
9764;BME280;4921;43.214;27.936;2022-11-18T08:29:16;100056.38;;;18.76;100.00
9764;BME280;4921;43.214;27.936;2022-11-18T08:31:44;100060.53;;;19.00;100.00
9764;BME280;4921;43.214;27.936;2022-11-18T08:34:11;100056.72;;;18.88;100.00
9764;BME280;4921;43.214;27.936;2022-11-18T08:36:39;100063.88;;;18.87;100.00
9764;BME280;4921;43.214;27.936;2022-11-18T08:39:07;100055.78;;;18.95;100.00
9764;BME280;4921;43.214;27.936;2022-11-18T08:41:36;100058.31;;;18.82;100.00
9764;BME280;4921;43.214;27.936;2022-11-18T08:44:05;100059.94;;;18.83;100.00
9764;BME280;4921;43.214;27.936;2022-11-18T08:46:32;100055.78;;;18.95;100.00
9764;BME280;4921;43.214;27.936;2022-11-18T08:49:00;100054.88;;;19.10;100.00
9764;BME280;4921;43.214;27.936;2022-11-18T08:51:27;100054.94;;;19.16;100.00
9764;BME280;4921;43.214;27.936;2022-11-18T08:53:55;100060.16;;;19.03;100.00
9764;BME280;4921;43.214;27.936;2022-11-18T08:56:23;100060.28;;;19.16;100.00
9764;BME280;4921;43.214;27.936;2022-11-18T08:58:50;100060.16;;;19.45;100.00
9764;BME280;4921;43.214;27.936;2022-11-18T09:01:17;100048.44;;;19.67;100.00
9764;BME280;4921;43.214;27.936;2022-11-18T09:03:44;100044.66;;;19.55;100.00
9764;BME280;4921;43.214;27.936;2022-11-18T09:06:14;100050.25;;;19.39;100.00
9764;BME280;4921;43.214;27.936;2022-11-18T09:08:42;100038.19;;;19.43;100.00
9764;BME280;4921;43.214;27.936;2022-11-18T09:11:10;100048.34;;;19.33;100.00
9764;BME280;4921;43.214;27.936;2022-11-18T09:13:38;100043.72;;;18.99;100.00
9764;BME280;4921;43.214;27.936;2022-11-18T09:16:05;100047.13;;;18.93;100.00
9764;BME280;4921;43.214;27.936;2022-11-18T09:18:33;100039.59;;;18.97;100.00
9764;BME280;4921;43.214;27.936;2022-11-18T09:21:01;100035.28;;;18.96;100.00
9764;BME280;4921;43.214;27.936;2022-11-18T09:23:32;100028.16;;;19.03;100.00
9764;BME280;4921;43.214;27.936;2022-11-18T09:26:00;100024.84;;;19.22;100.00
9764;BME280;4921;43.214;27.936;2022-11-18T09:28:27;100029.25;;;19.51;100.00
9764;BME280;4921;43.214;27.936;2022-11-18T09:30:54;100023.50;;;19.33;100.00
9764;BME280;4921;43.214;27.936;2022-11-18T09:33:21;100018.19;;;19.33;100.00
9764;BME280;4921;43.214;27.936;2022-11-18T09:35:48;100015.53;;;19.60;100.00
9764;BME280;4921;43.214;27.936;2022-11-18T09:38:15;100022.09;;;19.86;100.00
9764;BME280;4921;43.214;27.936;2022-11-18T09:40:49;100017.59;;;19.93;100.00
9764;BME280;4921;43.214;27.936;2022-11-18T09:43:29;100002.91;;;20.03;100.00
9764;BME280;4921;43.214;27.936;2022-11-18T09:46:08;100000.56;;;19.59;100.00
9764;BME280;4921;43.214;27.936;2022-11-18T09:48:44;100002.16;;;19.82;100.00
9764;BME280;4921;43.214;27.936;2022-11-18T09:51:31;99999.00;;;19.71;100.00
9764;BME280;4921;43.214;27.936;2022-11-18T09:53:59;99987.31;;;19.72;100.00
9764;BME280;4921;43.214;27.936;2022-11-18T09:56:28;99995.81;;;19.55;100.00
9764;BME280;4921;43.214;27.936;2022-11-18T09:58:55;99980.19;;;19.52;100.00
9764;BME280;4921;43.214;27.936;2022-11-18T10:01:22;99988.91;;;19.67;100.00
9764;BME280;4921;43.214;27.936;2022-11-18T10:03:49;99978.59;;;19.92;100.00
9764;BME280;4921;43.214;27.936;2022-11-18T10:06:20;99979.34;;;20.20;100.00
9764;BME280;4921;43.214;27.936;2022-11-18T10:08:59;99973.28;;;20.45;100.00
9764;BME280;4921;43.214;27.936;2022-11-18T10:11:34;99975.06;;;20.25;100.00
9764;BME280;4921;43.214;27.936;2022-11-18T10:14:17;99972.09;;;20.07;100.00
9764;BME280;4921;43.214;27.936;2022-11-18T10:16:55;99959.00;;;19.78;100.00
9764;BME280;4921;43.214;27.936;2022-11-18T10:19:32;99971.84;;;19.61;100.00
9764;BME280;4921;43.214;27.936;2022-11-18T10:22:16;99958.91;;;19.99;100.00
9764;BME280;4921;43.214;27.936;2022-11-18T10:24:48;99955.72;;;19.76;100.00
9764;BME280;4921;43.214;27.936;2022-11-18T10:27:17;99955.34;;;19.79;100.00
9764;BME280;4921;43.214;27.936;2022-11-18T10:29:45;99950.91;;;19.99;100.00
9764;BME280;4921;43.214;27.936;2022-11-18T10:32:15;99947.84;;;20.02;100.00
9764;BME280;4921;43.214;27.936;2022-11-18T10:34:47;99951.00;;;19.78;100.00
9764;BME280;4921;43.214;27.936;2022-11-18T10:37:27;99945.75;;;19.98;100.00
9764;BME280;4921;43.214;27.936;2022-11-18T10:39:55;99936.22;;;20.16;100.00
9764;BME280;4921;43.214;27.936;2022-11-18T10:42:28;99926.91;;;20.06;100.00
9764;BME280;4921;43.214;27.936;2022-11-18T10:44:55;99935.19;;;19.76;100.00
9764;BME280;4921;43.214;27.936;2022-11-18T10:47:40;99941.38;;;19.43;100.00
9764;BME280;4921;43.214;27.936;2022-11-18T10:50:27;99942.16;;;19.77;100.00
9764;BME280;4921;43.214;27.936;2022-11-18T10:52:55;99940.13;;;19.73;100.00
9764;BME280;4921;43.214;27.936;2022-11-18T10:55:23;99940.91;;;19.12;100.00
9764;BME280;4921;43.214;27.936;2022-11-18T10:57:55;99945.50;;;19.52;100.00
9764;BME280;4921;43.214;27.936;2022-11-18T11:00:46;99944.97;;;19.08;100.00
9764;BME280;4921;43.214;27.936;2022-11-18T11:03:31;99942.22;;;19.22;100.00
9764;BME280;4921;43.214;27.936;2022-11-18T11:06:29;99940.97;;;19.46;100.00
9764;BME280;4921;43.214;27.936;2022-11-18T11:08:59;99945.34;;;19.32;100.00
9764;BME280;4921;43.214;27.936;2022-11-18T11:11:29;99938.22;;;18.84;100.00
9764;BME280;4921;43.214;27.936;2022-11-18T11:14:18;99932.91;;;18.63;100.00
9764;BME280;4921;43.214;27.936;2022-11-18T11:16:52;99935.50;;;18.56;100.00
9764;BME280;4921;43.214;27.936;2022-11-18T11:19:24;99933.53;;;18.65;100.00
9764;BME280;4921;43.214;27.936;2022-11-18T11:21:52;99929.69;;;18.67;100.00
9764;BME280;4921;43.214;27.936;2022-11-18T11:24:20;99927.13;;;18.59;100.00
9764;BME280;4921;43.214;27.936;2022-11-18T11:26:54;99924.22;;;18.75;100.00
9764;BME280;4921;43.214;27.936;2022-11-18T11:29:50;99913.63;;;18.61;100.00
9764;BME280;4921;43.214;27.936;2022-11-18T11:32:26;99910.22;;;18.46;100.00
9764;BME280;4921;43.214;27.936;2022-11-18T11:35:01;99907.69;;;18.59;100.00
9764;BME280;4921;43.214;27.936;2022-11-18T11:37:42;99901.13;;;18.61;100.00
9764;BME280;4921;43.214;27.936;2022-11-18T11:40:27;99898.13;;;18.28;100.00
9764;BME280;4921;43.214;27.936;2022-11-18T11:43:26;99895.47;;;18.28;100.00
9764;BME280;4921;43.214;27.936;2022-11-18T11:46:11;99892.59;;;18.30;100.00
9764;BME280;4921;43.214;27.936;2022-11-18T11:48:54;99895.78;;;18.40;100.00
9764;BME280;4921;43.214;27.936;2022-11-18T11:51:27;99887.53;;;18.35;100.00
9764;BME280;4921;43.214;27.936;2022-11-18T11:54:07;99897.03;;;18.23;100.00
9764;BME280;4921;43.214;27.936;2022-11-18T11:56:39;99889.81;;;18.17;100.00
9764;BME280;4921;43.214;27.936;2022-11-18T11:59:22;99879.22;;;18.23;100.00
9764;BME280;4921;43.214;27.936;2022-11-18T12:02:09;99881.25;;;17.86;100.00
9764;BME280;4921;43.214;27.936;2022-11-18T12:04:42;99875.41;;;17.76;100.00
9764;BME280;4921;43.214;27.936;2022-11-18T12:07:16;99869.88;;;17.77;100.00
9764;BME280;4921;43.214;27.936;2022-11-18T12:10:01;99858.53;;;17.83;100.00
9764;BME280;4921;43.214;27.936;2022-11-18T12:12:34;99862.31;;;17.74;100.00
9764;BME280;4921;43.214;27.936;2022-11-18T12:15:25;99855.03;;;17.83;100.00
9764;BME280;4921;43.214;27.936;2022-11-18T12:18:04;99846.56;;;17.94;100.00
9764;BME280;4921;43.214;27.936;2022-11-18T12:20:42;99851.63;;;17.89;100.00
9764;BME280;4921;43.214;27.936;2022-11-18T12:23:12;99851.41;;;17.90;100.00
9764;BME280;4921;43.214;27.936;2022-11-18T12:25:50;99843.38;;;17.84;100.00
9764;BME280;4921;43.214;27.936;2022-11-18T12:28:23;99840.53;;;17.85;100.00
9764;BME280;4921;43.214;27.936;2022-11-18T12:31:32;99836.56;;;17.96;100.00
9764;BME280;4921;43.214;27.936;2022-11-18T12:36:47;99837.34;;;17.75;100.00
9764;BME280;4921;43.214;27.936;2022-11-18T12:39:45;99841.13;;;17.66;100.00
9764;BME280;4921;43.214;27.936;2022-11-18T12:45:59;99844.44;;;17.39;100.00
9764;BME280;4921;43.214;27.936;2022-11-18T12:54:24;99827.56;;;17.61;100.00
9764;BME280;4921;43.214;27.936;2022-11-18T12:56:52;99827.84;;;17.51;100.00
9764;BME280;4921;43.214;27.936;2022-11-18T12:59:26;99824.53;;;17.49;100.00
9764;BME280;4921;43.214;27.936;2022-11-18T13:02:04;99817.50;;;17.57;100.00
9764;BME280;4921;43.214;27.936;2022-11-18T13:04:32;99811.22;;;17.64;100.00
9764;BME280;4921;43.214;27.936;2022-11-18T13:07:00;99815.47;;;17.59;100.00
9764;BME280;4921;43.214;27.936;2022-11-18T13:09:32;99810.03;;;17.67;100.00
9764;BME280;4921;43.214;27.936;2022-11-18T13:12:03;99800.06;;;17.39;100.00
9764;BME280;4921;43.214;27.936;2022-11-18T13:14:33;99814.09;;;17.33;100.00
9764;BME280;4921;43.214;27.936;2022-11-18T13:17:25;99817.94;;;17.31;100.00
9764;BME280;4921;43.214;27.936;2022-11-18T13:20:26;99819.88;;;17.22;100.00
9764;BME280;4921;43.214;27.936;2022-11-18T13:22:57;99823.00;;;17.26;100.00
9764;BME280;4921;43.214;27.936;2022-11-18T13:25:46;99818.84;;;17.23;100.00
9764;BME280;4921;43.214;27.936;2022-11-18T13:28:22;99825.28;;;17.29;100.00